createdAt,value
2022-12-08T00:01:35.092Z,99937.47
2022-12-08T00:04:04.500Z,100059.75
2022-12-08T00:06:53.896Z,100060.50
2022-12-08T00:09:32.165Z,100050.78
2022-12-08T00:12:12.714Z,100063.81
2022-12-08T00:14:44.831Z,100053.25
2022-12-08T00:17:16.288Z,100048.88
2022-12-08T00:19:45.135Z,99869.00
2022-12-08T00:22:13.210Z,100043.16
2022-12-08T00:24:42.306Z,100036.75
2022-12-08T00:27:11.805Z,100035.06
2022-12-08T00:29:39.164Z,99890.06
2022-12-08T00:32:07.433Z,100028.63
2022-12-08T00:34:35.339Z,100028.94
2022-12-08T00:37:02.677Z,100019.41
2022-12-08T00:39:30.230Z,100023.75
2022-12-08T00:42:12.587Z,99985.03
2022-12-08T00:44:42.065Z,99996.41
2022-12-08T00:47:10.118Z,100025.13
2022-12-08T00:49:37.807Z,100029.44
2022-12-08T00:52:05.894Z,100015.41
2022-12-08T00:54:33.393Z,100017.38
2022-12-08T00:57:00.865Z,100025.13
2022-12-08T00:59:28.548Z,100014.84
2022-12-08T01:01:56.124Z,100011.13
2022-12-08T01:04:25.034Z,100013.88
2022-12-08T01:06:53.484Z,100015.34
2022-12-08T01:09:20.874Z,100027.56
2022-12-08T01:11:48.373Z,100021.78
2022-12-08T01:14:16.379Z,100020.97
2022-12-08T01:16:44.068Z,100015.06
2022-12-08T01:19:13.253Z,100012.19
2022-12-08T01:21:42.221Z,100027.88
2022-12-08T01:24:18.520Z,99913.34
2022-12-08T01:26:46.656Z,100013.69
2022-12-08T01:29:14.513Z,100017.03
2022-12-08T01:31:42.357Z,100010.84
2022-12-08T01:34:12.491Z,100009.16
2022-12-08T01:36:40.360Z,99922.50
2022-12-08T01:39:10.812Z,99933.81
2022-12-08T01:41:39.367Z,100011.78
2022-12-08T01:44:10.956Z,100004.47
2022-12-08T01:46:41.907Z,99908.03
2022-12-08T01:49:15.824Z,100020.47
2022-12-08T01:51:50.415Z,99919.16
2022-12-08T01:54:18.783Z,100013.03
2022-12-08T01:56:51.131Z,100009.69
2022-12-08T01:59:19.826Z,100000.94
2022-12-08T02:01:52.285Z,100021.84
2022-12-08T02:04:19.834Z,99995.91
2022-12-08T02:06:49.577Z,100007.22
2022-12-08T02:09:17.388Z,100006.34
2022-12-08T02:11:44.673Z,100009.81
2022-12-08T02:14:14.613Z,99959.34
2022-12-08T02:17:05.977Z,100008.06
2022-12-08T02:20:04.628Z,100000.31
2022-12-08T02:22:35.937Z,100004.75
2022-12-08T02:25:33.732Z,99990.28
2022-12-08T02:28:34.949Z,99999.16
2022-12-08T02:31:39.724Z,99998.03
2022-12-08T02:34:18.865Z,100000.00
2022-12-08T02:37:17.504Z,99982.78
2022-12-08T02:40:00.129Z,99987.84
2022-12-08T02:42:33.209Z,99980.16
2022-12-08T02:45:07.361Z,99975.97
2022-12-08T02:47:36.463Z,99984.69
2022-12-08T02:50:04.338Z,99966.56
2022-12-08T02:52:31.819Z,99983.09
2022-12-08T02:55:06.720Z,99986.59
2022-12-08T02:57:55.549Z,99981.44
2022-12-08T03:00:25.900Z,99928.28
2022-12-08T03:03:00.391Z,99961.78
2022-12-08T03:05:49.599Z,99960.16
2022-12-08T03:08:25.040Z,99958.31
2022-12-08T03:11:20.807Z,99958.44
2022-12-08T03:13:54.414Z,99975.53
2022-12-08T03:16:26.796Z,99846.22
2022-12-08T03:19:09.910Z,99968.06
2022-12-08T03:21:38.647Z,99853.22
2022-12-08T03:24:08.328Z,99946.03
2022-12-08T03:26:47.941Z,99935.34
2022-12-08T03:29:15.621Z,99938.16
2022-12-08T03:31:49.892Z,99831.38
2022-12-08T03:34:18.522Z,99956.34
2022-12-08T03:36:46.152Z,99950.22
2022-12-08T03:39:13.903Z,99935.44
2022-12-08T03:41:41.425Z,99947.66
2022-12-08T03:44:08.840Z,99946.84
2022-12-08T03:46:36.800Z,99925.94
2022-12-08T03:49:04.755Z,99798.81
2022-12-08T03:51:32.027Z,99935.34
2022-12-08T03:53:59.634Z,99932.81
2022-12-08T03:56:30.825Z,99919.19
2022-12-08T03:58:58.198Z,99913.34
2022-12-08T04:01:26.171Z,99922.53
2022-12-08T04:03:54.199Z,99909.19
2022-12-08T04:06:22.207Z,99904.91
2022-12-08T04:08:50.935Z,99916.63
2022-12-08T04:11:19.370Z,99920.91
2022-12-08T04:13:47.411Z,99919.19
2022-12-08T04:16:20.955Z,99900.69
2022-12-08T04:18:48.775Z,99916.22
2022-12-08T04:21:16.400Z,99917.88
2022-12-08T04:23:44.888Z,99916.97
2022-12-08T04:26:13.183Z,99919.63
2022-12-08T04:28:40.480Z,99921.97
2022-12-08T04:31:08.862Z,99892.00
2022-12-08T04:33:36.597Z,99927.00
2022-12-08T04:36:06.202Z,99920.09
2022-12-08T04:38:34.756Z,99916.78
2022-12-08T04:41:02.563Z,99774.00
2022-12-08T04:43:30.030Z,99919.13
2022-12-08T04:45:57.890Z,99929.72
2022-12-08T04:48:26.011Z,99931.34
2022-12-08T04:50:53.729Z,99820.97
2022-12-08T04:53:21.615Z,99856.16
2022-12-08T04:55:49.890Z,99927.91
2022-12-08T04:58:19.715Z,99928.16
2022-12-08T05:00:48.243Z,99824.56
2022-12-08T05:03:16.826Z,99911.84
2022-12-08T05:05:44.667Z,99902.34
2022-12-08T05:08:12.422Z,99902.53
2022-12-08T05:10:40.594Z,99905.16
2022-12-08T05:13:07.981Z,99903.69
2022-12-08T05:15:36.256Z,99910.69
2022-12-08T05:18:07.398Z,99920.84
2022-12-08T05:20:35.927Z,99906.97
2022-12-08T05:23:03.812Z,99912.03
2022-12-08T05:25:31.259Z,99917.22
2022-12-08T05:28:24.656Z,99912.13
2022-12-08T05:30:47.378Z,99921.63
2022-12-08T05:33:15.132Z,99909.91
2022-12-08T05:35:43.064Z,99893.22
2022-12-08T05:38:11.119Z,99895.94
2022-12-08T05:40:39.762Z,99779.09
2022-12-08T05:43:07.609Z,99907.19
2022-12-08T05:45:35.904Z,99797.06
2022-12-08T05:48:03.662Z,99906.41
2022-12-08T05:50:31.001Z,99899.41
2022-12-08T05:52:58.911Z,99900.56
2022-12-08T05:55:26.285Z,99914.41
2022-12-08T05:57:53.819Z,99895.06
2022-12-08T06:00:22.216Z,99915.78
2022-12-08T06:02:49.951Z,99913.25
2022-12-08T06:05:17.914Z,99900.81
2022-12-08T06:07:45.755Z,99904.50
2022-12-08T06:10:13.973Z,99916.72
2022-12-08T06:12:41.850Z,99908.69
2022-12-08T06:15:10.260Z,99898.50
2022-12-08T06:17:37.605Z,99883.03
2022-12-08T06:20:06.522Z,99889.91
2022-12-08T06:22:34.874Z,99901.34
2022-12-08T06:25:05.904Z,99792.28
2022-12-08T06:27:34.920Z,99917.75
2022-12-08T06:30:03.257Z,99911.41
2022-12-08T06:32:31.386Z,99707.00
2022-12-08T06:34:58.842Z,99870.50
2022-12-08T06:37:26.748Z,99755.75
2022-12-08T06:39:54.280Z,99893.53
2022-12-08T06:42:40.584Z,99896.78
2022-12-08T06:45:08.512Z,99904.22
2022-12-08T06:47:36.713Z,99906.50
2022-12-08T06:50:05.663Z,99863.94
2022-12-08T06:52:34.896Z,99893.72
2022-12-08T06:55:04.172Z,99864.78
2022-12-08T06:57:31.783Z,99898.84
2022-12-08T06:59:59.394Z,99897.34
2022-12-08T07:02:26.967Z,99907.88
2022-12-08T07:04:54.834Z,99907.09
2022-12-08T07:07:22.627Z,99896.94
2022-12-08T07:09:50.246Z,99871.03
2022-12-08T07:12:17.833Z,99895.41
2022-12-08T07:14:45.311Z,99881.91
2022-12-08T07:17:12.658Z,99889.88
2022-12-08T07:19:40.413Z,99886.66
2022-12-08T07:22:07.900Z,99826.22
2022-12-08T07:24:36.191Z,99894.06
2022-12-08T07:27:04.309Z,99877.94
2022-12-08T07:29:31.772Z,99896.38
2022-12-08T07:32:00.364Z,99823.16
2022-12-08T07:34:28.958Z,99899.19
2022-12-08T07:36:56.289Z,99889.84
2022-12-08T07:39:23.851Z,99893.19
2022-12-08T07:41:51.659Z,99901.16
2022-12-08T07:44:19.149Z,99843.81
2022-12-08T07:46:46.668Z,99893.81
2022-12-08T07:49:14.465Z,99856.28
2022-12-08T07:51:41.960Z,99837.66
2022-12-08T07:54:12.941Z,99856.88
2022-12-08T07:56:40.951Z,99884.47
2022-12-08T07:59:08.335Z,99877.69
2022-12-08T08:01:36.659Z,99864.06
2022-12-08T08:04:07.033Z,99845.69
2022-12-08T08:06:36.435Z,99861.09
2022-12-08T08:09:04.705Z,99849.97
2022-12-08T08:11:32.511Z,99858.06
2022-12-08T08:13:59.997Z,99870.34
2022-12-08T08:16:29.192Z,99737.84
2022-12-08T08:19:00.076Z,99838.22
2022-12-08T08:24:15.268Z,99854.22
2022-12-08T08:26:42.740Z,99833.63
2022-12-08T08:29:10.183Z,99851.22
2022-12-08T08:31:38.105Z,99847.59
2022-12-08T08:34:06.662Z,99611.63
2022-12-08T08:36:34.958Z,99847.34
2022-12-08T08:39:03.559Z,99851.88
2022-12-08T08:41:31.515Z,99864.94
2022-12-08T08:43:58.811Z,99853.78
2022-12-08T08:46:26.925Z,99857.66
2022-12-08T08:48:54.565Z,99848.78
2022-12-08T08:51:21.971Z,99834.16
2022-12-08T08:53:49.660Z,99662.50
2022-12-08T08:56:19.619Z,99852.00
2022-12-08T08:58:51.912Z,99838.28
2022-12-08T09:01:22.020Z,99836.16
2022-12-08T09:03:50.106Z,99848.91
2022-12-08T09:06:18.400Z,99857.94
2022-12-08T09:08:46.694Z,99836.72
2022-12-08T09:11:14.201Z,99848.44
2022-12-08T09:13:42.347Z,99739.22
2022-12-08T09:16:11.680Z,99838.00
2022-12-08T09:18:38.942Z,99848.50
2022-12-08T09:21:13.481Z,99860.72
2022-12-08T09:23:41.347Z,99592.47
2022-12-08T09:26:08.989Z,99841.72
2022-12-08T09:28:37.158Z,99840.34
2022-12-08T09:31:05.011Z,99704.41
2022-12-08T09:33:33.958Z,99721.63
2022-12-08T09:36:04.124Z,99833.56
2022-12-08T09:38:32.640Z,99711.91
2022-12-08T09:41:03.750Z,99821.56
2022-12-08T09:43:53.195Z,99701.81
2022-12-08T09:46:21.659Z,99828.34
2022-12-08T09:48:57.646Z,99828.34
2022-12-08T09:51:27.846Z,99830.25
2022-12-08T09:54:00.461Z,99822.28
2022-12-08T09:56:36.283Z,99827.63
2022-12-08T09:59:17.462Z,99826.63
2022-12-08T10:01:45.044Z,99825.75
2022-12-08T10:04:24.754Z,99826.56
2022-12-08T10:07:07.611Z,99827.56
2022-12-08T10:09:51.677Z,99826.84
2022-12-08T10:12:26.615Z,99820.84
2022-12-08T10:15:16.091Z,99826.13
2022-12-08T10:17:48.736Z,99827.91
2022-12-08T10:20:29.227Z,99825.25
2022-12-08T10:23:07.857Z,99831.13
2022-12-08T10:25:56.060Z,99718.69
2022-12-08T10:28:23.442Z,99831.84
2022-12-08T10:30:50.965Z,99692.47
2022-12-08T10:33:21.383Z,99853.78
2022-12-08T10:35:58.579Z,99823.63
2022-12-08T10:38:34.888Z,99819.34
2022-12-08T10:41:12.145Z,99822.13
2022-12-08T10:43:56.734Z,99834.00
2022-12-08T10:46:26.071Z,99832.16
2022-12-08T10:49:25.571Z,99833.84
2022-12-08T10:51:53.051Z,99802.41
2022-12-08T10:54:37.872Z,99834.00
2022-12-08T10:57:05.378Z,99828.25
2022-12-08T10:59:34.442Z,99828.25
2022-12-08T11:02:02.546Z,99832.78
2022-12-08T11:04:38.509Z,99802.41
2022-12-08T11:07:09.088Z,99812.91
2022-12-08T11:09:38.507Z,99825.91
2022-12-08T11:12:09.562Z,99821.63
2022-12-08T11:14:43.369Z,99817.53
2022-12-08T11:17:33.117Z,99814.88
2022-12-08T11:20:02.498Z,99823.81
2022-12-08T11:22:38.750Z,99823.28
2022-12-08T11:25:18.339Z,99814.25
2022-12-08T11:27:51.333Z,99803.06
2022-12-08T11:30:23.988Z,99809.00
2022-12-08T11:32:56.442Z,99802.94
2022-12-08T11:35:45.719Z,99796.94
2022-12-08T11:38:22.519Z,99811.59
2022-12-08T11:41:16.663Z,99806.31
2022-12-08T11:44:10.005Z,99791.47
2022-12-08T11:46:44.047Z,99802.56
2022-12-08T11:49:13.798Z,99802.03
2022-12-08T11:51:57.379Z,99805.47
2022-12-08T11:54:40.329Z,99797.53
2022-12-08T11:57:21.098Z,99805.47
2022-12-08T11:59:51.310Z,99828.72
2022-12-08T12:02:19.011Z,99807.38
2022-12-08T12:04:54.313Z,99820.03
2022-12-08T12:07:26.429Z,99732.78
2022-12-08T12:10:18.481Z,99828.63
2022-12-08T12:13:07.603Z,99828.81
2022-12-08T12:15:41.343Z,99829.47
2022-12-08T12:18:56.100Z,99825.72
2022-12-08T12:21:39.471Z,99822.09
2022-12-08T12:24:23.810Z,99818.66
2022-12-08T12:26:59.344Z,99821.03
2022-12-08T12:29:31.821Z,99826.16
2022-12-08T12:32:05.093Z,99826.00
2022-12-08T12:34:45.224Z,99834.63
2022-12-08T12:37:24.374Z,99719.03
2022-12-08T12:39:58.221Z,99836.25
2022-12-08T12:42:43.823Z,99825.06
2022-12-08T12:45:17.495Z,99849.06
2022-12-08T12:47:57.176Z,99833.56
2022-12-08T12:50:33.882Z,99841.34
2022-12-08T12:53:18.340Z,99824.13
2022-12-08T12:55:45.848Z,99847.63
2022-12-08T12:58:28.740Z,99859.63
2022-12-08T13:01:14.154Z,99855.31
2022-12-08T13:03:52.025Z,99845.78
2022-12-08T13:06:32.565Z,99861.28
2022-12-08T13:09:01.043Z,99852.72
2022-12-08T13:11:28.589Z,99787.41
2022-12-08T13:14:05.664Z,99852.13
2022-12-08T13:16:39.722Z,99825.06
2022-12-08T13:19:16.484Z,99825.78
2022-12-08T13:21:44.020Z,99836.22
2022-12-08T13:24:14.660Z,99850.22
2022-12-08T13:27:04.392Z,99827.56
2022-12-08T13:29:33.871Z,99837.16
2022-12-08T13:32:25.584Z,99665.72
2022-12-08T13:34:58.120Z,99841.75
2022-12-08T13:37:54.510Z,99837.28
2022-12-08T13:40:27.370Z,99850.00
2022-12-08T13:43:25.604Z,99846.59
2022-12-08T13:50:54.819Z,99832.97
2022-12-08T13:55:27.063Z,99824.47
2022-12-08T13:57:28.898Z,99842.00
2022-12-08T14:00:01.125Z,99833.25
2022-12-08T14:02:47.138Z,99663.16
2022-12-08T14:05:20.462Z,99802.81
2022-12-08T14:07:54.413Z,99667.00
2022-12-08T14:10:32.392Z,99804.59
2022-12-08T14:13:04.474Z,99841.31
2022-12-08T14:15:38.601Z,99840.31
2022-12-08T14:18:21.409Z,99846.44
2022-12-08T14:21:22.389Z,99848.25
2022-12-08T14:24:10.200Z,99657.41
2022-12-08T14:26:37.769Z,99867.72
2022-12-08T14:29:09.884Z,99861.06
2022-12-08T14:31:37.302Z,99874.19
2022-12-08T14:34:04.921Z,99880.31
2022-12-08T14:36:34.066Z,99888.13
2022-12-08T14:39:01.690Z,99888.34
2022-12-08T14:41:33.582Z,99842.28
2022-12-08T14:44:02.013Z,99884.31
2022-12-08T14:46:29.745Z,99802.34
2022-12-08T14:48:58.558Z,99883.50
2022-12-08T14:51:33.539Z,99889.66
2022-12-08T14:54:13.906Z,99786.22
2022-12-08T14:56:55.880Z,99753.53
2022-12-08T14:59:27.745Z,99786.63
2022-12-08T15:02:11.525Z,99900.81
2022-12-08T15:04:41.384Z,99898.34
2022-12-08T15:07:18.970Z,99891.44
2022-12-08T15:09:50.341Z,99897.75
2022-12-08T15:12:27.041Z,99909.97
2022-12-08T15:15:10.217Z,99906.53
2022-12-08T15:17:40.669Z,99910.84
2022-12-08T15:20:35.343Z,99911.63
2022-12-08T15:23:04.239Z,99916.00
2022-12-08T15:25:31.974Z,99905.84
2022-12-08T15:27:59.906Z,99934.44
2022-12-08T15:30:27.601Z,99915.41
2022-12-08T15:32:56.395Z,99924.97
2022-12-08T15:35:24.182Z,99908.47
2022-12-08T15:37:52.130Z,99947.69
2022-12-08T15:40:23.063Z,99932.13
2022-12-08T15:42:50.719Z,99940.75
2022-12-08T15:45:18.411Z,99913.69
2022-12-08T15:47:46.639Z,99937.44
2022-12-08T15:50:19.448Z,99934.06
2022-12-08T15:52:47.126Z,99910.44
2022-12-08T15:55:16.585Z,99923.50
2022-12-08T16:00:54.653Z,99935.50
2022-12-08T16:07:04.857Z,99955.25
2022-12-08T16:09:19.927Z,99932.06
2022-12-08T16:12:08.145Z,99853.00
2022-12-08T16:17:26.180Z,99931.31
2022-12-08T16:19:54.170Z,99931.38
2022-12-08T16:22:52.797Z,99906.94
2022-12-08T16:25:20.299Z,99952.13
2022-12-08T16:28:36.868Z,99945.19
2022-12-08T16:30:42.176Z,99942.72
2022-12-08T16:33:12.181Z,99846.13
2022-12-08T16:35:40.815Z,99950.66
2022-12-08T16:38:08.597Z,99942.97
2022-12-08T16:40:56.386Z,99855.16
2022-12-08T16:43:24.402Z,99944.06
2022-12-08T16:45:51.923Z,99943.25
2022-12-08T16:48:20.741Z,99843.06
2022-12-08T16:50:48.715Z,99947.66
2022-12-08T16:53:16.372Z,99943.38
2022-12-08T16:55:48.825Z,99947.59
2022-12-08T16:58:18.986Z,99958.84
2022-12-08T17:00:46.654Z,99945.78
2022-12-08T17:03:15.806Z,99940.56
2022-12-08T17:05:44.182Z,99939.75
2022-12-08T17:08:13.420Z,99950.13
2022-12-08T17:10:41.660Z,99855.94
2022-12-08T17:13:09.602Z,99927.38
2022-12-08T17:15:37.095Z,99877.59
2022-12-08T17:18:04.584Z,99946.75
2022-12-08T17:20:34.929Z,99939.13
2022-12-08T17:23:02.636Z,99923.50
2022-12-08T17:25:30.373Z,99931.22
2022-12-08T17:27:58.427Z,99939.06
2022-12-08T17:30:25.774Z,99873.75
2022-12-08T17:32:53.498Z,99884.75
2022-12-08T17:35:21.919Z,99946.91
2022-12-08T17:37:49.880Z,99950.31
2022-12-08T17:40:17.499Z,99945.88
2022-12-08T17:42:45.335Z,99949.56
2022-12-08T17:45:15.332Z,99934.13
2022-12-08T17:47:42.726Z,99953.19
2022-12-08T17:50:11.069Z,99941.88
2022-12-08T17:52:38.444Z,99958.44
2022-12-08T17:55:06.388Z,99951.56
2022-12-08T17:57:34.237Z,99953.44
2022-12-08T18:00:02.881Z,99946.53
2022-12-08T18:02:40.030Z,99967.16
2022-12-08T18:05:07.737Z,99974.84
2022-12-08T18:07:35.767Z,99982.53
2022-12-08T18:10:04.592Z,99976.41
2022-12-08T18:12:32.396Z,99959.94
2022-12-08T18:15:00.039Z,99961.59
2022-12-08T18:17:27.896Z,99961.50
2022-12-08T18:19:55.299Z,99961.44
2022-12-08T18:22:22.664Z,99956.22
2022-12-08T18:24:50.965Z,99977.88
2022-12-08T18:27:18.755Z,99974.34
2022-12-08T18:29:46.303Z,99961.44
2022-12-08T18:32:14.064Z,99970.78
2022-12-08T18:34:41.828Z,99967.28
2022-12-08T18:37:09.270Z,99972.50
2022-12-08T18:39:38.222Z,99976.00
2022-12-08T18:42:23.048Z,99978.53
2022-12-08T18:44:52.240Z,99989.00
2022-12-08T18:47:20.164Z,99880.91
2022-12-08T18:49:47.793Z,99983.97
2022-12-08T18:52:17.907Z,99957.78
2022-12-08T18:55:05.790Z,99915.91
2022-12-08T18:57:35.571Z,99976.34
2022-12-08T19:00:06.177Z,99982.25
2022-12-08T19:02:34.369Z,99973.88
2022-12-08T19:05:02.444Z,99972.22
2022-12-08T19:07:31.022Z,99978.34
2022-12-08T19:09:59.466Z,99968.75
2022-12-08T19:12:27.295Z,99992.97
2022-12-08T19:14:54.805Z,99979.94
2022-12-08T19:17:22.509Z,99980.06
2022-12-08T19:19:50.349Z,99889.56
2022-12-08T19:22:17.906Z,99956.59
2022-12-08T19:24:45.305Z,99988.84
2022-12-08T19:27:13.246Z,99980.94
2022-12-08T19:29:40.781Z,99969.63
2022-12-08T19:32:08.087Z,99986.25
2022-12-08T19:34:36.202Z,99979.25
2022-12-08T19:37:04.020Z,99794.59
2022-12-08T19:39:50.267Z,99993.16
2022-12-08T19:42:38.552Z,99987.06
2022-12-08T19:45:08.672Z,100003.53
2022-12-08T19:47:36.420Z,99985.53
2022-12-08T19:50:23.967Z,99840.69
2022-12-08T19:52:52.567Z,99988.63
2022-12-08T19:55:20.670Z,99993.25
2022-12-08T19:57:48.272Z,100006.28
2022-12-08T20:00:16.303Z,99972.53
2022-12-08T20:02:43.964Z,99977.59
2022-12-08T20:05:13.169Z,99983.88
2022-12-08T20:07:41.523Z,99987.50
2022-12-08T20:10:17.372Z,99984.09
2022-12-08T20:12:45.077Z,99982.31
2022-12-08T20:15:12.724Z,99978.88
2022-12-08T20:17:40.468Z,99984.03
2022-12-08T20:20:10.148Z,99984.84
2022-12-08T20:22:38.017Z,99901.22
2022-12-08T20:25:06.305Z,99979.69
2022-12-08T20:27:34.014Z,100003.25
2022-12-08T20:30:01.689Z,100000.72
2022-12-08T20:32:31.610Z,99999.16
2022-12-08T20:34:59.493Z,99998.38
2022-12-08T20:37:26.845Z,99932.88
2022-12-08T20:39:54.516Z,100011.31
2022-12-08T20:42:24.206Z,99993.28
2022-12-08T20:44:51.530Z,99977.69
2022-12-08T20:47:19.204Z,99875.75
2022-12-08T20:49:47.774Z,99983.66
2022-12-08T20:52:17.098Z,99992.31
2022-12-08T20:54:45.565Z,100005.16
2022-12-08T20:57:13.358Z,100002.50
2022-12-08T20:59:40.932Z,99920.56
2022-12-08T21:02:10.835Z,99993.72
2022-12-08T21:04:38.681Z,99991.97
2022-12-08T21:07:08.944Z,99991.91
2022-12-08T21:09:37.301Z,100005.84
2022-12-08T21:12:05.305Z,100006.59
2022-12-08T21:14:35.117Z,100002.34
2022-12-08T21:17:03.274Z,99889.22
2022-12-08T21:19:30.960Z,99983.25
2022-12-08T21:21:58.306Z,99868.41
2022-12-08T21:24:31.966Z,99817.69
2022-12-08T21:27:01.627Z,99990.41
2022-12-08T21:29:29.873Z,99968.03
2022-12-08T21:31:58.829Z,99972.34
2022-12-08T21:34:52.107Z,99989.66
2022-12-08T21:37:22.526Z,99990.66
2022-12-08T21:39:50.018Z,99992.38
2022-12-08T21:42:36.481Z,99994.16
2022-12-08T21:45:04.857Z,99998.47
2022-12-08T21:47:32.665Z,99977.47
2022-12-08T21:50:00.633Z,99993.75
2022-12-08T21:52:28.469Z,100008.50
2022-12-08T21:54:56.180Z,100005.91
2022-12-08T21:57:24.894Z,99851.94
2022-12-08T21:59:52.439Z,100007.03
2022-12-08T22:02:22.611Z,99876.50
2022-12-08T22:04:53.111Z,100007.13
2022-12-08T22:07:21.712Z,99997.63
2022-12-08T22:09:49.509Z,100012.44
2022-12-08T22:12:17.581Z,100005.59
2022-12-08T22:14:45.398Z,100009.25
2022-12-08T22:17:12.922Z,100013.56
2022-12-08T22:19:40.808Z,99929.84
2022-12-08T22:22:08.756Z,100007.56
2022-12-08T22:24:36.341Z,99998.09
2022-12-08T22:27:04.466Z,100001.72
2022-12-08T22:29:31.993Z,100002.56
2022-12-08T22:31:59.576Z,100019.69
2022-12-08T22:34:47.315Z,99912.53
2022-12-08T22:37:15.111Z,100011.06
2022-12-08T22:39:42.713Z,100006.66
2022-12-08T22:42:10.433Z,100015.19
2022-12-08T22:44:38.111Z,100040.41
2022-12-08T22:47:05.640Z,100027.59
2022-12-08T22:49:33.776Z,100028.53
2022-12-08T22:52:01.580Z,100016.47
2022-12-08T22:54:28.837Z,99954.56
2022-12-08T22:56:56.886Z,100020.72
2022-12-08T22:59:24.947Z,100025.84
2022-12-08T23:01:54.032Z,100019.78
2022-12-08T23:04:21.905Z,100024.19
2022-12-08T23:06:49.320Z,100022.47
2022-12-08T23:09:16.720Z,100009.47
2022-12-08T23:11:44.520Z,100006.88
2022-12-08T23:14:12.047Z,100018.09
2022-12-08T23:16:39.959Z,99863.88
2022-12-08T23:19:08.226Z,100015.47
2022-12-08T23:21:35.731Z,100024.03
2022-12-08T23:24:03.256Z,99952.44
2022-12-08T23:26:33.261Z,99935.13
2022-12-08T23:29:01.838Z,100022.25
2022-12-08T23:31:29.277Z,100018.88
2022-12-08T23:33:56.967Z,100024.00
2022-12-08T23:36:26.614Z,100024.03
2022-12-08T23:38:55.368Z,100025.00
2022-12-08T23:41:23.462Z,100025.06
2022-12-08T23:43:51.918Z,100020.69
2022-12-08T23:46:21.824Z,100034.44
2022-12-08T23:48:50.511Z,100018.00
2022-12-08T23:51:18.048Z,100033.63
2022-12-08T23:53:46.399Z,100032.00
2022-12-08T23:56:16.824Z,100021.66
2022-12-08T23:58:45.080Z,100028.53
